• Join FlightAware (Why Join?)
  • Login
  • US Flag 
09:01PM EDT


 

Airport Tracker/Info


-or-


 

Live Flight TrackerFlight Track Log ✈ UCA3596 ✈ 09-Jan-2014 ✈ KIAD - KBGM

Flight Track Log - Related Links

Times and Time Zones

All times are in EST time to prevent confusion due to time zone crossing. See the UCA3596 flight status page for this flight to view local times or setup timezone preferences in your user account.

Time Position Orientation Groundspeed Altitude Reporting Facility
EST Latitude Longitude Course Direction KTS MPH feet Rate Location/Type
03:31PM 40.6832 -76.6911 19° North  Level Estimated
03:32PM 40.7499 -76.6607 19° North  Level Estimated
03:33PM 40.8165 -76.6303 19° North  Level Estimated
03:34PM 40.8832 -76.5998 19° North  Level Estimated
03:35PM 40.9498 -76.5693 19° North  Level Estimated
03:36PM 41.0164 -76.5386 19° North  Level Estimated
03:37PM 41.0830 -76.5080 19° North  Level Estimated
03:38PM 41.1497 -76.4772 19° North  Level Estimated
03:39PM 41.2163 -76.4464 19° North  Level Estimated
03:40PM 41.2828 -76.4156 19° North  Level Estimated
03:41PM 41.3494 -76.3847 19° North  Level Estimated
03:42PM 41.4160 -76.3537 19° North  Level Estimated
03:43PM 41.4826 -76.3226 19° North  Level Estimated
03:44PM 41.5491 -76.2915 19° North  Level Estimated
03:45PM 41.6157 -76.2603 19° North  Level Estimated
03:46PM 41.6822 -76.2291 19° North  Level Estimated
03:47PM 41.7487 -76.1978 19° North  Level Estimated
03:48PM 41.8153 -76.1664 19° North  Level Estimated
03:49PM 41.8818 -76.1350 19° North  Level Estimated
03:50PM 41.9483 -76.1035 19° North  Level Estimated
03:51PM 42.0148 -76.0719 19° North  Level Estimated
03:52PM 42.0813 -76.0403 19° North  Level Estimated
03:53PM 42.1478 -76.0086 19° North  Level Estimated
03:54PM 42.2084 -75.9796 19° North  Level Estimated
03:55PM 42.2084 -75.9796 35° Northeast  Level Estimated
03:56PM 42.2084 -75.9796 35° Northeast  Level Estimated
03:57PM 42.2084 -75.9796 35° Northeast  Level Estimated
03:58PM 42.2084 -75.9796 35° Northeast  Level Estimated
03:59PM 42.2084 -75.9796 35° Northeast  Level Estimated
04:00PM 42.2084 -75.9796 35° Northeast  Level Estimated
04:01PM 42.2084 -75.9796 35° Northeast  Level Estimated
04:02PM 42.2084 -75.9796 35° Northeast  Level Estimated
04:03PM 42.2084 -75.9796 35° Northeast  Level Estimated
04:04PM 42.2084 -75.9796 35° Northeast  Level Estimated
04:05PM 42.2084 -75.9796 35° Northeast  Level Estimated
04:06PM 42.2084 -75.9796 35° Northeast  Level Estimated
04:07PM 42.2084 -75.9796 35° Northeast  Level Estimated
04:08PM 42.2084 -75.9796 35° Northeast  Level Estimated
04:09PM 42.2084 -75.9796 35° Northeast  Level Estimated
04:10PM 42.2084 -75.9796 35° Northeast  Level Estimated